Ktima, Cyprus
Current Conditions -  °F | °C
As of 11:30 AM on Sunday 26 Oct 2014 (Local Time) from LCPH Reporting Station
Few Clouds Few Clouds  
Wind Chill: 79°   Ceiling: Unl
Heat Index: 81°   Visibility: 6mi
Dew Point: 64°   Wind: 7mph
Humidity: 61%   Direction: 220°SW
Pressure: 30"   Gusts: NA
Location:  34.76°N, 32.42°E
Report Text: LCPH 260830Z 22006KT 160V250 9999 FEW025 26/18 Q1016
Loading
Personal Weather Stations






























Interactive Weather Map New forecast layout! Learn more

10-Day Weather Forecast

Advertisements
Track Severe Weather on mobile